Aviation Digital Data Service (ADDS)

Output produced by METARs form (0956 UTC 19 January 2019)
found at http://www.aviationweather.gov/metar/data/
 
SOCA 190930Z AUTO 05007KT 9999 SCT023 SCT033 BKN039 26/23 Q1012 TEMPO 2000 SHRA SCT012TCU
TAF SOCA 190500Z 1906/2006 06005KT 9999 BKN020 BKN045 
     TEMPO 1906/1913 2000 SHRA SCT012TCU 
     FM191300 06014KT 9999 BKN026 
     TEMPO 1922/2006 3000 SHRA SCT018TCU